Time;durP1;ratioP1;P1;durP2;ratioP2;P2;SDS_P1;SDS_P2;PMS_P1;PMS_P2;Temp;Humidity;BMP_temperature;BMP_pressure;BME280_temperature;BME280_humidity;BME280_pressure;Samples;Min_cycle;Max_cycle;Signal;HPM_P1;HPM_P2
2021/11/29 00:05:09;;;;;;;62.10;57.37;;;;;;;1.32;100.00;101232.20;2005564;71;32823;-76
2021/11/29 00:10:53;;;;;;;61.10;56.70;;;;;;;1.34;100.00;101227.87;2000493;71;33365;-71
2021/11/29 00:16:38;;;;;;;61.07;56.57;;;;;;;1.35;100.00;101241.34;1994861;71;32810;-76
2021/11/29 00:22:22;;;;;;;63.17;58.33;;;;;;;1.35;100.00;101259.13;2015136;71;32841;-70
2021/11/29 00:28:08;;;;;;;61.57;56.87;;;;;;;1.31;100.00;101248.83;1991631;71;33335;-75
2021/11/29 00:33:55;;;;;;;60.47;55.67;;;;;;;1.21;100.00;101248.42;2016641;70;32872;-75
2021/11/29 00:39:40;;;;;;;60.60;56.10;;;;;;;1.23;100.00;101251.80;2003968;71;32798;-75
2021/11/29 00:45:25;;;;;;;63.97;59.23;;;;;;;1.16;100.00;101252.33;2014834;71;32922;-70
2021/11/29 00:51:09;;;;;;;60.23;55.63;;;;;;;1.14;100.00;101255.81;2006198;71;32747;-76
2021/11/29 00:56:53;;;;;;;62.67;57.77;;;;;;;1.13;100.00;101259.60;2015193;71;33408;-70
2021/11/29 01:02:37;;;;;;;62.37;57.47;;;;;;;0.96;100.00;101259.73;2014740;71;32824;-69
2021/11/29 01:08:23;;;;;;;63.67;58.50;;;;;;;1.01;100.00;101264.89;2011257;71;33424;-77
2021/11/29 01:14:08;;;;;;;61.77;56.87;;;;;;;0.95;100.00;101271.20;1995298;71;32878;-69
2021/11/29 01:19:54;;;;;;;62.77;57.57;;;;;;;0.90;100.00;101264.99;2013030;70;32929;-75
2021/11/29 01:25:45;;;;;;;62.40;57.10;;;;;;;0.82;100.00;101276.15;2013404;71;32916;-70
2021/11/29 01:31:29;;;;;;;64.63;59.37;;;;;;;0.96;100.00;101276.98;2009556;71;33054;-75
2021/11/29 01:37:13;;;;;;;63.53;58.23;;;;;;;0.80;100.00;101272.80;1991574;71;32751;-69
2021/11/29 01:43:00;;;;;;;63.53;58.23;;;;;;;0.84;100.00;101280.05;1995241;71;32769;-75
2021/11/29 01:48:46;;;;;;;64.33;59.03;;;;;;;0.89;100.00;101283.00;1994835;71;32817;-70
2021/11/29 01:54:34;;;;;;;63.57;58.43;;;;;;;0.83;100.00;101290.66;2008274;71;32861;-76
2021/11/29 02:00:24;;;;;;;64.33;59.03;;;;;;;0.83;100.00;101295.61;2015203;71;33501;-70
2021/11/29 02:06:10;;;;;;;63.67;58.43;;;;;;;0.76;100.00;101305.72;2011960;71;32850;-75
2021/11/29 02:11:56;;;;;;;66.07;60.43;;;;;;;0.72;100.00;101309.08;2000781;71;33248;-76
2021/11/29 02:17:41;;;;;;;65.63;60.00;;;;;;;0.86;100.00;101319.79;2015338;71;32824;-76
2021/11/29 02:23:27;;;;;;;64.37;58.73;;;;;;;0.77;100.00;101327.07;1998488;71;32936;-70
2021/11/29 02:29:14;;;;;;;63.30;57.77;;;;;;;0.84;100.00;101327.91;1994986;71;33309;-75
2021/11/29 02:34:59;;;;;;;64.10;58.70;;;;;;;0.75;100.00;101338.20;2016966;71;32818;-77
2021/11/29 02:40:44;;;;;;;63.67;58.20;;;;;;;0.88;100.00;101345.57;2011702;71;32922;-70
2021/11/29 02:46:30;;;;;;;64.23;58.87;;;;;;;0.79;100.00;101355.03;2002337;71;32826;-70
2021/11/29 02:52:17;;;;;;;65.37;59.67;;;;;;;0.74;100.00;101362.48;1997794;70;32835;-70
2021/11/29 02:58:02;;;;;;;65.17;59.13;;;;;;;0.71;100.00;101367.02;2009644;71;33303;-75
2021/11/29 03:03:51;;;;;;;63.50;57.93;;;;;;;0.87;100.00;101369.34;2004090;71;32908;-76
2021/11/29 03:06:42;;;;;;;62.43;57.10;;;;;;;1.08;100.00;101381.12;1970043;72;26209;-74
2021/11/29 03:12:26;;;;;;;60.93;55.53;;;;;;;1.32;100.00;101373.66;2007846;71;32915;-69
2021/11/29 03:18:10;;;;;;;61.37;56.00;;;;;;;1.31;100.00;101377.45;1994798;71;33386;-71
2021/11/29 03:23:57;;;;;;;60.90;55.93;;;;;;;1.39;100.00;101370.38;1980045;72;33362;-75
2021/11/29 03:29:40;;;;;;;61.50;56.20;;;;;;;1.35;100.00;101378.18;2000261;71;32967;-75
2021/11/29 03:35:25;;;;;;;61.43;56.23;;;;;;;1.10;100.00;101372.20;2006215;71;32878;-75
2021/11/29 03:41:10;;;;;;;63.03;57.63;;;;;;;1.10;100.00;101374.93;2016869;71;32899;-68
2021/11/29 03:46:55;;;;;;;63.23;58.03;;;;;;;0.62;100.00;101386.02;2006574;71;33365;-76
2021/11/29 03:52:39;;;;;;;64.37;58.93;;;;;;;0.54;100.00;101385.38;1991645;70;32810;-75
2021/11/29 03:58:24;;;;;;;61.57;56.17;;;;;;;0.63;100.00;101393.70;2009483;71;32824;-70
2021/11/29 04:04:09;;;;;;;59.80;54.57;;;;;;;0.54;100.00;101403.14;1998537;71;32965;-76
2021/11/29 04:09:54;;;;;;;60.07;54.53;;;;;;;0.72;100.00;101418.44;2014926;71;33387;-76
2021/11/29 04:15:38;;;;;;;60.20;55.23;;;;;;;0.70;100.00;101422.73;2005667;71;32903;-70
2021/11/29 04:21:22;;;;;;;61.23;55.97;;;;;;;0.59;100.00;101436.17;1991622;71;32792;-76
2021/11/29 04:27:06;;;;;;;63.20;57.57;;;;;;;0.57;100.00;101436.36;2016642;71;32814;-76
2021/11/29 04:32:54;;;;;;;60.00;55.00;;;;;;;0.37;100.00;101437.67;2007732;71;32803;-70
2021/11/29 04:38:38;;;;;;;60.40;55.10;;;;;;;0.64;100.00;101439.13;2005536;71;32920;-70
2021/11/29 04:44:22;;;;;;;60.13;55.23;;;;;;;0.37;100.00;101446.39;2016520;71;32793;-69
2021/11/29 04:50:08;;;;;;;58.43;53.43;;;;;;;0.38;100.00;101446.72;2000152;71;32824;-76
2021/11/29 04:55:52;;;;;;;59.57;54.37;;;;;;;0.36;100.00;101455.11;1998917;71;33310;-76
2021/11/29 05:01:36;;;;;;;59.97;55.27;;;;;;;0.30;100.00;101468.75;1937231;71;39532;-76
2021/11/29 05:07:20;;;;;;;60.53;55.33;;;;;;;0.41;100.00;101480.45;2018546;71;33387;-70
2021/11/29 05:13:04;;;;;;;58.77;53.97;;;;;;;0.54;100.00;101484.61;2018364;71;32893;-70
2021/11/29 05:18:48;;;;;;;57.70;53.03;;;;;;;0.40;100.00;101489.70;2004404;71;32812;-76
2021/11/29 05:24:32;;;;;;;59.83;54.83;;;;;;;0.43;100.00;101498.32;2015002;71;32943;-75
2021/11/29 05:30:16;;;;;;;59.27;54.23;;;;;;;0.51;100.00;101502.80;2006255;71;32808;-69
2021/11/29 05:35:59;;;;;;;57.93;53.03;;;;;;;0.60;100.00;101510.30;2009447;71;32904;-75
2021/11/29 05:41:44;;;;;;;61.47;56.00;;;;;;;0.55;100.00;101523.20;2016612;71;32902;-68
2021/11/29 05:47:29;;;;;;;62.70;57.30;;;;;;;0.56;100.00;101534.44;2014949;71;32881;-70
2021/11/29 05:53:13;;;;;;;62.70;57.00;;;;;;;0.64;100.00;101541.09;2014773;71;32809;-76
2021/11/29 05:58:57;;;;;;;61.23;55.83;;;;;;;0.72;100.00;101542.31;2018449;71;32909;-76
2021/11/29 06:04:41;;;;;;;61.03;55.77;;;;;;;0.68;100.00;101541.56;2014912;71;32921;-70
2021/11/29 06:10:26;;;;;;;61.10;55.80;;;;;;;0.73;100.00;101554.06;1991732;71;33343;-75
2021/11/29 06:16:10;;;;;;;60.83;55.33;;;;;;;0.77;100.00;101553.45;2018364;71;32816;-75
2021/11/29 06:21:54;;;;;;;60.33;54.93;;;;;;;0.90;100.00;101554.88;1994916;70;33295;-71
2021/11/29 06:27:38;;;;;;;59.93;54.70;;;;;;;0.89;100.00;101552.37;2005726;71;32905;-75
2021/11/29 06:33:23;;;;;;;61.17;55.77;;;;;;;0.90;100.00;101558.98;2003894;71;32806;-76
2021/11/29 06:39:08;;;;;;;63.77;58.07;;;;;;;0.95;100.00;101569.31;2000336;71;33287;-69
2021/11/29 06:44:52;;;;;;;61.90;56.30;;;;;;;0.93;100.00;101562.37;2000951;71;32728;-71
2021/11/29 06:50:36;;;;;;;60.93;55.67;;;;;;;1.01;100.00;101579.97;1998473;71;32980;-76
2021/11/29 06:56:20;;;;;;;63.53;57.73;;;;;;;0.88;100.00;101588.97;1985411;71;32748;-70
2021/11/29 07:02:06;;;;;;;63.47;58.10;;;;;;;0.81;100.00;101595.75;2000360;71;33327;-70
2021/11/29 07:07:51;;;;;;;64.60;59.07;;;;;;;0.56;100.00;101591.84;2018526;71;32810;-69
2021/11/29 07:13:40;;;;;;;63.50;58.10;;;;;;;0.44;100.00;101605.75;2011360;71;33300;-70
2021/11/29 07:19:24;;;;;;;65.13;59.43;;;;;;;0.09;100.00;101608.96;2004576;71;32847;-76
2021/11/29 07:25:10;;;;;;;64.43;59.13;;;;;;;0.13;100.00;101623.91;2002861;71;33298;-78
2021/11/29 07:30:54;;;;;;;66.77;61.17;;;;;;;0.10;100.00;101628.41;2011492;71;32901;-76
2021/11/29 07:36:41;;;;;;;68.70;62.60;;;;;;;0.47;100.00;101633.22;2011400;70;33465;-76
2021/11/29 07:42:25;;;;;;;65.93;60.37;;;;;;;0.40;100.00;101650.41;2013703;71;33356;-75
2021/11/29 07:48:09;;;;;;;67.33;61.90;;;;;;;0.38;100.00;101657.13;2018524;71;32912;-70
2021/11/29 07:53:53;;;;;;;67.40;61.90;;;;;;;0.58;100.00;101662.72;2002788;71;32899;-70
2021/11/29 07:59:43;;;;;;;67.73;62.20;;;;;;;0.43;100.00;101671.86;2004249;71;33402;-75
2021/11/29 08:05:29;;;;;;;66.20;60.47;;;;;;;0.51;100.00;101668.16;2015032;71;32944;-76
2021/11/29 08:11:14;;;;;;;65.30;59.60;;;;;;;0.77;100.00;101686.63;2016860;71;33372;-70
2021/11/29 08:16:59;;;;;;;68.63;62.63;;;;;;;0.81;100.00;101696.94;2014923;71;33340;-70
2021/11/29 08:22:49;;;;;;;67.80;62.17;;;;;;;0.98;100.00;101693.91;1995250;71;33286;-70
2021/11/29 08:28:33;;;;;;;67.90;61.87;;;;;;;0.74;100.00;101687.01;2013148;71;33021;-76
2021/11/29 08:34:18;;;;;;;68.20;61.97;;;;;;;0.82;100.00;101686.84;2014893;71;32923;-69
2021/11/29 08:40:03;;;;;;;71.83;65.93;;;;;;;0.91;100.00;101703.42;2003940;71;32836;-69
2021/11/29 08:45:50;;;;;;;72.67;66.00;;;;;;;1.11;100.00;101709.88;2003949;71;32906;-76
2021/11/29 08:51:34;;;;;;;64.77;59.10;;;;;;;1.12;100.00;101702.48;2016760;71;32824;-76
2021/11/29 08:57:18;;;;;;;68.83;62.57;;;;;;;1.27;100.00;101710.89;2000770;71;32916;-70
2021/11/29 09:03:06;;;;;;;65.37;59.40;;;;;;;1.41;100.00;101713.70;2009453;71;32865;-70
2021/11/29 09:08:50;;;;;;;63.87;57.83;;;;;;;1.39;100.00;101712.52;2006065;70;33335;-76
2021/11/29 09:14:37;;;;;;;64.63;58.63;;;;;;;1.59;100.00;101715.33;1997388;71;32814;-76
2021/11/29 09:20:24;;;;;;;62.57;56.70;;;;;;;1.62;100.00;101718.52;1997122;71;33276;-70
2021/11/29 09:26:09;;;;;;;63.30;57.33;;;;;;;1.73;100.00;101725.28;1995220;71;33365;-75
2021/11/29 09:31:53;;;;;;;62.77;57.13;;;;;;;1.91;100.00;101730.19;2007680;71;32894;-76
2021/11/29 09:37:37;;;;;;;64.10;58.47;;;;;;;1.92;100.00;101726.40;2014839;71;32916;-76
2021/11/29 09:43:24;;;;;;;66.70;60.90;;;;;;;1.87;100.00;101729.75;2016726;71;32820;-75
2021/11/29 09:49:09;;;;;;;64.50;59.03;;;;;;;1.96;100.00;101724.41;2011721;71;32927;-68
2021/11/29 09:54:53;;;;;;;65.00;59.17;;;;;;;2.12;100.00;101739.61;2015026;71;32829;-71
2021/11/29 10:00:41;;;;;;;62.23;56.70;;;;;;;2.15;100.00;101740.03;2009495;71;32884;-76
2021/11/29 10:06:26;;;;;;;65.23;59.67;;;;;;;2.21;100.00;101736.47;2016814;71;32902;-75
2021/11/29 10:12:27;;;;;;;63.23;57.73;;;;;;;2.16;100.00;101736.77;2005842;71;32813;-74
2021/11/29 10:18:29;;;;;;;62.40;56.73;;;;;;;2.28;100.00;101740.57;2011295;71;32863;-78
2021/11/29 10:24:18;;;;;;;63.27;57.87;;;;;;;2.33;100.00;101744.91;1952418;72;33038;-69
2021/11/29 10:30:08;;;;;;;64.83;59.13;;;;;;;2.32;100.00;101741.84;1994984;71;32980;-69
2021/11/29 10:35:53;;;;;;;62.40;56.93;;;;;;;2.42;100.00;101745.55;2014762;71;32827;-76
2021/11/29 10:41:47;;;;;;;65.77;59.83;;;;;;;2.40;100.00;101749.02;2000894;71;32769;-68
2021/11/29 10:47:34;;;;;;;72.87;65.80;;;;;;;2.45;100.00;101756.09;2018452;71;32830;-75
2021/11/29 10:53:21;;;;;;;66.90;60.80;;;;;;;2.58;100.00;101756.09;2003988;71;33299;-76
2021/11/29 10:59:17;;;;;;;66.03;60.40;;;;;;;2.42;100.00;101761.48;2016784;71;32831;-74
2021/11/29 11:05:08;;;;;;;65.77;60.07;;;;;;;2.52;100.00;101752.32;2002824;71;32759;-73
2021/11/29 11:10:56;;;;;;;63.80;58.30;;;;;;;2.65;100.00;101753.66;2013552;71;32806;-74
2021/11/29 11:16:43;;;;;;;65.87;60.37;;;;;;;2.69;100.00;101752.22;2000301;71;32821;-74
2021/11/29 11:22:37;;;;;;;61.67;56.33;;;;;;;2.74;100.00;101750.18;1997303;71;32749;-74
2021/11/29 11:31:31;;;;;;;63.83;58.40;;;;;;;2.81;100.00;101731.84;2061183;69;33217;-74
2021/11/29 11:34:02;;;;;;;63.37;57.97;;;;;;;2.84;100.00;101734.67;1943350;73;26659;-73
2021/11/29 11:36:33;;;;;;;60.10;54.93;;;;;;;2.74;100.00;101743.32;1934651;73;26204;-74
2021/11/29 11:39:05;;;;;;;63.00;57.30;;;;;;;2.78;100.00;101745.98;1969371;72;26198;-74
2021/11/29 11:41:35;;;;;;;62.97;57.53;;;;;;;2.74;100.00;101748.28;1935516;73;26209;-74
2021/11/29 11:44:07;;;;;;;61.83;56.43;;;;;;;2.82;100.00;101744.50;1979985;72;26256;-73
2021/11/29 11:46:37;;;;;;;63.03;57.47;;;;;;;2.82;100.00;101744.50;1980378;72;26221;-74
2021/11/29 11:49:07;;;;;;;64.53;58.80;;;;;;;2.92;100.00;101746.27;1980455;72;26809;-74
2021/11/29 11:51:39;;;;;;;64.37;58.87;;;;;;;2.89;100.00;101737.63;1980963;72;26235;-74
2021/11/29 11:54:09;;;;;;;62.03;56.70;;;;;;;2.88;100.00;101737.30;1977282;72;26212;-73
2021/11/29 12:00:09;;;;;;;63.67;57.87;;;;;;;3.11;100.00;101722.59;2013489;71;33314;-73
2021/11/29 12:06:16;;;;;;;61.17;55.40;;;;;;;3.36;100.00;101729.59;2013335;71;32804;-72
2021/11/29 12:12:05;;;;;;;63.30;57.60;;;;;;;3.51;100.00;101721.39;2004497;71;32810;-73
2021/11/29 12:17:50;;;;;;;62.17;56.53;;;;;;;3.59;100.00;101721.14;2000862;71;32751;-74
2021/11/29 12:23:47;;;;;;;61.03;56.10;;;;;;;3.64;100.00;101720.49;2010262;71;33370;-74
2021/11/29 12:29:55;;;;;;;58.73;53.87;;;;;;;3.78;100.00;101710.28;2003859;71;32823;-73
2021/11/29 12:35:44;;;;;;;59.47;54.50;;;;;;;3.72;100.00;101702.41;2009801;71;33393;-73
2021/11/29 12:44:53;;;;;;;57.27;52.57;;;;;;;3.90;100.00;101692.88;2017000;71;32884;-74
2021/11/29 12:50:49;;;;;;;60.13;55.17;;;;;;;3.89;100.00;101698.61;2013421;71;32895;-73
2021/11/29 12:56:44;;;;;;;59.53;54.90;;;;;;;3.89;100.00;101698.61;1994749;71;33302;-74
2021/11/29 13:02:50;;;;;;;61.63;56.80;;;;;;;4.13;100.00;101693.69;2007797;71;33368;-72
2021/11/29 13:08:58;;;;;;;63.37;58.67;;;;;;;4.03;100.00;101687.30;2006619;71;32728;-72
2021/11/29 13:14:41;;;;;;;59.57;54.90;;;;;;;4.12;100.00;101680.47;2004112;71;33264;-72
2021/11/29 13:20:45;;;;;;;58.80;54.20;;;;;;;4.19;100.00;101679.59;2000931;70;32817;-75
2021/11/29 13:26:37;;;;;;;64.47;59.40;;;;;;;4.24;100.00;101683.33;1991753;71;32728;-75
2021/11/29 13:32:25;;;;;;;61.67;57.07;;;;;;;4.24;100.00;101677.84;2016801;71;32961;-74
2021/11/29 13:38:11;;;;;;;59.23;54.60;;;;;;;4.40;100.00;101679.21;2009362;71;32791;-73
2021/11/29 13:43:55;;;;;;;59.57;55.07;;;;;;;4.43;100.00;101670.50;2006535;71;32774;-74
2021/11/29 13:49:42;;;;;;;62.27;57.53;;;;;;;4.58;100.00;101675.11;1998646;71;32803;-75
2021/11/29 13:55:31;;;;;;;55.60;51.53;;;;;;;4.64;100.00;101673.38;2000459;71;32821;-77
2021/11/29 14:01:21;;;;;;;56.90;52.80;;;;;;;4.54;100.00;101666.47;2015078;71;32998;-78
2021/11/29 14:07:09;;;;;;;59.67;55.10;;;;;;;4.49;100.00;101655.30;1995274;71;32774;-71
2021/11/29 14:12:53;;;;;;;58.97;54.47;;;;;;;4.55;100.00;101664.56;2007931;71;32740;-72
2021/11/29 14:18:42;;;;;;;57.40;53.00;;;;;;;4.58;100.00;101680.61;1997038;71;32848;-71
2021/11/29 14:24:33;;;;;;;56.30;52.40;;;;;;;4.58;100.00;101680.08;1977742;72;32980;-72
2021/11/29 14:30:19;;;;;;;59.17;54.70;;;;;;;4.48;100.00;101689.41;2013592;71;32773;-73
2021/11/29 14:36:06;;;;;;;60.30;55.70;;;;;;;4.39;100.00;101703.65;2005959;71;32910;-76
2021/11/29 14:42:06;;;;;;;62.73;58.00;;;;;;;4.42;100.00;101690.28;1991585;71;32844;-74
2021/11/29 14:48:00;;;;;;;61.07;56.43;;;;;;;4.44;100.00;101697.80;2000134;71;33279;-76
2021/11/29 14:53:46;;;;;;;64.13;59.23;;;;;;;4.40;100.00;101707.56;1995368;71;32743;-77
2021/11/29 14:59:30;;;;;;;62.60;57.77;;;;;;;4.41;100.00;101702.34;2009300;71;32904;-77
2021/11/29 15:05:19;;;;;;;61.63;56.87;;;;;;;4.15;100.00;101709.41;2009844;71;33396;-78
2021/11/29 15:11:06;;;;;;;61.57;56.77;;;;;;;4.14;100.00;101721.50;2015353;71;32903;-77
2021/11/29 15:16:58;;;;;;;63.13;58.43;;;;;;;4.20;100.00;101720.59;2001107;71;32832;-78
2021/11/29 15:22:51;;;;;;;61.33;56.90;;;;;;;4.22;100.00;101723.13;2002439;71;32908;-76
2021/11/29 15:28:43;;;;;;;60.83;56.40;;;;;;;4.22;100.00;101739.11;2005974;71;33081;-73
2021/11/29 15:34:27;;;;;;;63.00;58.40;;;;;;;4.06;100.00;101732.77;2012986;71;32820;-76
2021/11/29 15:40:27;;;;;;;63.50;58.73;;;;;;;4.12;100.00;101735.45;2009646;71;32986;-73
2021/11/29 15:46:31;;;;;;;63.40;58.80;;;;;;;4.07;100.00;101734.42;2014872;71;33293;-77
2021/11/29 15:52:14;;;;;;;63.47;58.77;;;;;;;4.03;100.00;101734.03;2007722;71;33389;-76
2021/11/29 15:57:58;;;;;;;61.60;57.20;;;;;;;3.94;100.00;101727.09;2000455;70;32993;-74
2021/11/29 16:03:44;;;;;;;64.10;59.33;;;;;;;3.81;100.00;101714.80;1998891;71;33249;-75
2021/11/29 16:09:29;;;;;;;65.90;60.73;;;;;;;3.62;100.00;101720.73;2006230;71;32736;-77
2021/11/29 16:15:13;;;;;;;63.00;58.30;;;;;;;3.45;100.00;101733.27;2015201;71;33360;-78
2021/11/29 16:20:57;;;;;;;64.83;60.00;;;;;;;3.47;100.00;101726.16;2016644;71;33377;-75
2021/11/29 16:26:44;;;;;;;65.17;60.27;;;;;;;3.30;100.00;101725.80;2003956;71;32815;-76
2021/11/29 16:32:31;;;;;;;67.60;62.30;;;;;;;3.33;100.00;101734.16;2006197;71;32910;-78
2021/11/29 16:38:17;;;;;;;67.97;62.63;;;;;;;3.25;100.00;101726.16;2005213;71;32894;-78
2021/11/29 16:44:02;;;;;;;65.87;60.57;;;;;;;3.38;100.00;101731.61;2011668;71;32856;-80
2021/11/29 16:49:47;;;;;;;65.70;60.50;;;;;;;3.24;100.00;101722.56;2004186;71;33348;-77
2021/11/29 16:55:31;;;;;;;64.83;60.03;;;;;;;3.41;100.00;101725.16;2014947;71;32815;-73
2021/11/29 17:01:15;;;;;;;63.10;58.23;;;;;;;3.39;100.00;101730.52;2014757;71;33363;-75
2021/11/29 17:06:59;;;;;;;63.97;59.07;;;;;;;3.41;100.00;101728.42;2002355;71;32748;-74
2021/11/29 17:12:44;;;;;;;67.00;62.00;;;;;;;3.44;100.00;101748.05;2014615;71;32822;-77
2021/11/29 17:18:29;;;;;;;64.47;59.47;;;;;;;3.46;100.00;101769.29;2008291;71;33441;-79
2021/11/29 17:24:15;;;;;;;66.13;61.37;;;;;;;3.48;100.00;101759.44;1956222;72;32867;-75
2021/11/29 17:29:59;;;;;;;66.77;61.57;;;;;;;3.60;100.00;101768.69;2006022;71;32757;-75
2021/11/29 17:35:44;;;;;;;63.97;58.97;;;;;;;3.64;100.00;101771.31;2003357;71;32826;-75
2021/11/29 17:41:29;;;;;;;63.20;58.20;;;;;;;3.74;100.00;101780.48;2013133;71;32954;-75
2021/11/29 17:47:15;;;;;;;63.93;58.77;;;;;;;3.75;100.00;101778.05;2007634;71;32812;-75
2021/11/29 17:53:00;;;;;;;63.30;58.23;;;;;;;3.70;100.00;101766.34;2006077;71;32747;-75
2021/11/29 17:58:44;;;;;;;66.53;60.97;;;;;;;3.88;100.00;101773.88;1995017;71;32805;-75
2021/11/29 18:04:30;;;;;;;60.73;55.80;;;;;;;3.90;100.00;101754.72;1939267;70;33054;-71
2021/11/29 18:16:16;;;;;;;63.23;58.33;;;;;;;4.08;100.00;101745.73;2008021;71;32863;-70
2021/11/29 18:22:00;;;;;;;61.30;56.60;;;;;;;4.09;100.00;101743.31;2016936;71;32834;-70
2021/11/29 18:27:48;;;;;;;55.50;51.40;;;;;;;4.24;100.00;101747.95;2016828;71;32832;-78
2021/11/29 18:33:33;;;;;;;56.87;52.70;;;;;;;4.39;100.00;101742.16;1999039;71;32943;-72
2021/11/29 18:39:17;;;;;;;56.20;52.13;;;;;;;4.38;100.00;101725.34;1997319;71;32791;-71
2021/11/29 18:45:06;;;;;;;54.73;51.03;;;;;;;4.47;100.00;101729.50;2015329;71;32838;-78
2021/11/29 18:50:52;;;;;;;50.97;47.57;;;;;;;4.54;100.00;101742.13;2002626;71;32851;-70
2021/11/29 18:56:37;;;;;;;51.23;47.93;;;;;;;4.64;100.00;101734.76;2007813;71;32929;-77
2021/11/29 19:02:21;;;;;;;54.63;50.93;;;;;;;4.71;100.00;101735.53;2017151;71;32923;-77
2021/11/29 19:08:07;;;;;;;54.30;50.50;;;;;;;4.77;100.00;101722.79;2015466;71;32938;-77
2021/11/29 19:13:51;;;;;;;53.13;49.57;;;;;;;4.72;100.00;101705.58;2016849;71;32875;-75
2021/11/29 19:19:36;;;;;;;52.43;48.77;;;;;;;4.69;100.00;101691.44;2011887;71;32859;-76
2021/11/29 19:25:22;;;;;;;56.30;52.50;;;;;;;4.73;100.00;101689.91;1995531;71;32748;-70
2021/11/29 19:31:08;;;;;;;55.27;51.43;;;;;;;4.78;100.00;101692.83;2015338;71;32940;-77
2021/11/29 19:36:52;;;;;;;55.37;51.57;;;;;;;4.82;100.00;101688.02;2003991;71;32916;-71
2021/11/29 19:42:37;;;;;;;56.00;52.17;;;;;;;4.68;100.00;101667.20;1991891;71;33259;-69
2021/11/29 19:48:23;;;;;;;58.83;54.90;;;;;;;4.69;100.00;101673.02;2011368;71;33295;-76
2021/11/29 19:54:08;;;;;;;56.17;52.37;;;;;;;4.61;100.00;101655.42;2010382;71;33245;-76
2021/11/29 19:59:52;;;;;;;56.40;52.50;;;;;;;4.72;100.00;101657.95;2015465;71;32875;-69
2021/11/29 20:05:37;;;;;;;55.70;51.90;;;;;;;4.78;100.00;101658.42;2001057;71;32800;-75
2021/11/29 20:11:21;;;;;;;56.37;52.40;;;;;;;4.86;100.00;101662.26;2015221;71;33341;-74
2021/11/29 20:17:07;;;;;;;54.50;50.90;;;;;;;4.90;100.00;101661.58;2018917;71;33365;-69
2021/11/29 20:22:51;;;;;;;53.23;49.73;;;;;;;4.99;100.00;101656.61;2002747;70;32813;-77
2021/11/29 20:28:37;;;;;;;51.60;48.00;;;;;;;5.08;100.00;101662.66;2016995;71;33366;-76
2021/11/29 20:34:24;;;;;;;51.17;47.87;;;;;;;5.14;100.00;101668.07;2016958;71;32902;-69
2021/11/29 20:40:12;;;;;;;51.90;48.80;;;;;;;5.29;100.00;101680.09;2004216;71;32899;-75
2021/11/29 20:45:58;;;;;;;51.90;48.60;;;;;;;5.44;100.00;101671.73;2009953;71;32961;-69
2021/11/29 20:51:43;;;;;;;50.33;46.83;;;;;;;5.34;100.00;101677.50;2011587;71;33365;-71
2021/11/29 20:57:28;;;;;;;51.10;47.70;;;;;;;5.40;100.00;101671.05;2015252;71;32900;-70
2021/11/29 21:03:13;;;;;;;52.13;48.63;;;;;;;5.34;100.00;101665.95;2006398;71;33379;-71
2021/11/29 21:08:59;;;;;;;53.97;50.67;;;;;;;5.35;100.00;101651.61;2016814;70;32870;-77
2021/11/29 21:14:44;;;;;;;53.27;49.67;;;;;;;5.36;100.00;101652.77;2003932;71;32825;-75
2021/11/29 21:20:28;;;;;;;55.63;51.83;;;;;;;5.43;100.00;101646.63;2011224;71;32826;-71
2021/11/29 21:26:14;;;;;;;55.13;51.47;;;;;;;5.48;100.00;101650.06;1999032;70;33407;-71
2021/11/29 21:31:59;;;;;;;54.23;50.67;;;;;;;5.52;100.00;101643.02;2008380;71;33231;-72
2021/11/29 21:37:47;;;;;;;54.73;51.03;;;;;;;5.54;100.00;101649.68;1997337;71;32906;-76
2021/11/29 21:43:32;;;;;;;58.50;54.40;;;;;;;5.39;100.00;101637.14;2015254;71;33328;-75
2021/11/29 21:49:17;;;;;;;55.50;51.90;;;;;;;5.47;100.00;101641.52;2004208;71;32925;-77
2021/11/29 21:55:02;;;;;;;56.00;52.10;;;;;;;5.37;100.00;101628.28;1991541;71;32753;-71
2021/11/29 22:00:47;;;;;;;56.07;52.17;;;;;;;5.44;100.00;101624.89;2003979;71;32810;-77
2021/11/29 22:06:31;;;;;;;56.47;52.47;;;;;;;5.43;100.00;101619.07;2002818;71;32749;-76
2021/11/29 22:12:15;;;;;;;56.77;52.87;;;;;;;5.42;100.00;101609.68;2016748;71;32861;-70
2021/11/29 22:17:59;;;;;;;56.13;52.10;;;;;;;5.51;100.00;101619.31;1999050;71;33347;-73
2021/11/29 22:23:44;;;;;;;59.60;55.30;;;;;;;5.50;100.00;101623.98;1991698;71;32751;-69
2021/11/29 22:29:31;;;;;;;56.63;52.60;;;;;;;5.56;100.00;101620.84;2007687;71;32850;-78
2021/11/29 22:35:15;;;;;;;57.83;53.73;;;;;;;5.59;100.00;101615.38;2009885;71;33360;-78
2021/11/29 22:41:00;;;;;;;58.03;54.00;;;;;;;5.69;100.00;101610.16;2002871;71;33211;-78
2021/11/29 22:46:42;;;;;;;56.87;52.87;;;;;;;5.76;100.00;101618.62;2007754;71;33434;-70
2021/11/29 22:52:26;;;;;;;56.73;52.53;;;;;;;5.84;100.00;101621.58;2015001;71;32920;-69
2021/11/29 22:58:10;;;;;;;57.43;53.23;;;;;;;5.83;100.00;101613.84;2018641;71;32804;-78
2021/11/29 23:04:01;;;;;;;58.00;53.70;;;;;;;5.93;100.00;101601.74;2006446;71;33279;-76
2021/11/29 23:09:45;;;;;;;56.90;52.63;;;;;;;6.06;100.00;101615.86;2006580;71;32803;-69
2021/11/29 23:15:29;;;;;;;56.73;52.77;;;;;;;5.96;100.00;101601.80;2013097;71;32827;-76
2021/11/29 23:21:14;;;;;;;56.43;52.43;;;;;;;6.07;100.00;101597.39;1995469;71;32903;-69
2021/11/29 23:26:59;;;;;;;55.27;51.17;;;;;;;6.09;100.00;101600.20;2008207;71;32819;-75
2021/11/29 23:32:44;;;;;;;56.30;52.20;;;;;;;6.10;100.00;101595.00;2011930;71;33372;-77
2021/11/29 23:38:30;;;;;;;58.40;54.13;;;;;;;6.07;100.00;101594.64;1997583;71;32756;-74
2021/11/29 23:44:19;;;;;;;56.70;52.50;;;;;;;6.14;100.00;101596.73;2004774;71;32786;-76
2021/11/29 23:50:03;;;;;;;56.80;52.80;;;;;;;6.31;100.00;101601.31;1991755;71;32810;-69
2021/11/29 23:55:50;;;;;;;57.60;53.20;;;;;;;6.23;100.00;101592.55;2005780;71;32813;-76
